sensor_id;sensor_type;location;lat;lon;timestamp;P1;durP1;ratioP1;P2;durP2;ratioP2
48861;SDS011;34681;49.188;-0.374;2023-10-19T00:01:58;12.77;;;4.00;;
48861;SDS011;34681;49.188;-0.374;2023-10-19T00:04:25;8.53;;;2.30;;
48861;SDS011;34681;49.188;-0.374;2023-10-19T00:06:51;3.47;;;2.60;;
48861;SDS011;34681;49.188;-0.374;2023-10-19T00:09:18;7.83;;;2.70;;
48861;SDS011;34681;49.188;-0.374;2023-10-19T00:11:45;5.70;;;2.43;;
48861;SDS011;34681;49.188;-0.374;2023-10-19T00:14:11;9.10;;;2.90;;
48861;SDS011;34681;49.188;-0.374;2023-10-19T00:16:43;10.13;;;4.40;;
48861;SDS011;34681;49.188;-0.374;2023-10-19T00:19:16;11.00;;;3.47;;
48861;SDS011;34681;49.188;-0.374;2023-10-19T00:21:44;8.07;;;2.70;;
48861;SDS011;34681;49.188;-0.374;2023-10-19T00:24:19;10.80;;;3.00;;
48861;SDS011;34681;49.188;-0.374;2023-10-19T00:26:47;11.27;;;3.33;;
48861;SDS011;34681;49.188;-0.374;2023-10-19T00:29:13;9.70;;;2.60;;
48861;SDS011;34681;49.188;-0.374;2023-10-19T00:31:57;19.43;;;4.20;;
48861;SDS011;34681;49.188;-0.374;2023-10-19T00:34:23;9.90;;;3.53;;
48861;SDS011;34681;49.188;-0.374;2023-10-19T00:36:50;15.43;;;3.77;;
48861;SDS011;34681;49.188;-0.374;2023-10-19T00:39:16;10.30;;;2.70;;
48861;SDS011;34681;49.188;-0.374;2023-10-19T00:41:46;14.37;;;3.90;;
48861;SDS011;34681;49.188;-0.374;2023-10-19T00:44:13;14.43;;;3.60;;
48861;SDS011;34681;49.188;-0.374;2023-10-19T00:46:42;16.63;;;4.43;;
48861;SDS011;34681;49.188;-0.374;2023-10-19T00:49:07;19.10;;;4.63;;
48861;SDS011;34681;49.188;-0.374;2023-10-19T00:56:56;13.00;;;4.23;;
48861;SDS011;34681;49.188;-0.374;2023-10-19T00:59:24;13.30;;;4.40;;
48861;SDS011;34681;49.188;-0.374;2023-10-19T01:02:00;17.37;;;4.53;;
48861;SDS011;34681;49.188;-0.374;2023-10-19T01:04:41;22.50;;;4.43;;
48861;SDS011;34681;49.188;-0.374;2023-10-19T01:07:08;13.47;;;4.40;;
48861;SDS011;34681;49.188;-0.374;2023-10-19T01:09:41;17.10;;;3.87;;
48861;SDS011;34681;49.188;-0.374;2023-10-19T01:12:09;23.53;;;4.77;;
48861;SDS011;34681;49.188;-0.374;2023-10-19T01:17:49;13.10;;;3.90;;
48861;SDS011;34681;49.188;-0.374;2023-10-19T01:20:26;13.90;;;3.87;;
48861;SDS011;34681;49.188;-0.374;2023-10-19T01:22:56;15.23;;;4.40;;
48861;SDS011;34681;49.188;-0.374;2023-10-19T01:25:53;18.63;;;5.33;;
48861;SDS011;34681;49.188;-0.374;2023-10-19T01:30:53;21.70;;;4.57;;
48861;SDS011;34681;49.188;-0.374;2023-10-19T01:33:20;12.40;;;4.43;;
48861;SDS011;34681;49.188;-0.374;2023-10-19T01:35:46;16.73;;;4.90;;
48861;SDS011;34681;49.188;-0.374;2023-10-19T01:38:30;15.27;;;4.50;;
48861;SDS011;34681;49.188;-0.374;2023-10-19T01:40:56;13.23;;;4.77;;
48861;SDS011;34681;49.188;-0.374;2023-10-19T01:43:25;18.50;;;5.10;;
48861;SDS011;34681;49.188;-0.374;2023-10-19T01:45:56;15.10;;;3.90;;
48861;SDS011;34681;49.188;-0.374;2023-10-19T01:48:23;12.70;;;4.50;;
48861;SDS011;34681;49.188;-0.374;2023-10-19T01:51:05;8.60;;;4.07;;
48861;SDS011;34681;49.188;-0.374;2023-10-19T01:53:33;14.53;;;4.50;;
48861;SDS011;34681;49.188;-0.374;2023-10-19T01:56:01;9.30;;;3.50;;
48861;SDS011;34681;49.188;-0.374;2023-10-19T01:58:30;13.77;;;4.10;;
48861;SDS011;34681;49.188;-0.374;2023-10-19T02:01:01;17.10;;;4.33;;
48861;SDS011;34681;49.188;-0.374;2023-10-19T02:03:31;12.80;;;4.30;;
48861;SDS011;34681;49.188;-0.374;2023-10-19T02:06:00;12.90;;;4.13;;
48861;SDS011;34681;49.188;-0.374;2023-10-19T02:08:34;15.40;;;4.37;;
48861;SDS011;34681;49.188;-0.374;2023-10-19T02:11:03;16.37;;;4.20;;
48861;SDS011;34681;49.188;-0.374;2023-10-19T02:13:34;16.17;;;5.00;;
48861;SDS011;34681;49.188;-0.374;2023-10-19T02:16:00;22.30;;;6.00;;
48861;SDS011;34681;49.188;-0.374;2023-10-19T02:18:26;19.73;;;5.07;;
48861;SDS011;34681;49.188;-0.374;2023-10-19T02:20:51;21.50;;;4.70;;
48861;SDS011;34681;49.188;-0.374;2023-10-19T02:23:17;20.73;;;5.80;;
48861;SDS011;34681;49.188;-0.374;2023-10-19T02:25:43;21.23;;;5.03;;
48861;SDS011;34681;49.188;-0.374;2023-10-19T02:28:08;21.33;;;4.63;;
48861;SDS011;34681;49.188;-0.374;2023-10-19T02:30:34;20.63;;;5.27;;
48861;SDS011;34681;49.188;-0.374;2023-10-19T02:33:00;14.57;;;4.27;;
48861;SDS011;34681;49.188;-0.374;2023-10-19T02:35:31;18.83;;;6.17;;
48861;SDS011;34681;49.188;-0.374;2023-10-19T02:37:56;23.90;;;5.07;;
48861;SDS011;34681;49.188;-0.374;2023-10-19T02:40:23;28.37;;;4.70;;
48861;SDS011;34681;49.188;-0.374;2023-10-19T02:42:50;26.83;;;5.87;;
48861;SDS011;34681;49.188;-0.374;2023-10-19T02:45:15;22.07;;;4.87;;
48861;SDS011;34681;49.188;-0.374;2023-10-19T02:47:43;19.40;;;4.50;;
48861;SDS011;34681;49.188;-0.374;2023-10-19T02:50:09;18.30;;;4.90;;
48861;SDS011;34681;49.188;-0.374;2023-10-19T02:52:38;12.70;;;3.80;;
48861;SDS011;34681;49.188;-0.374;2023-10-19T02:55:03;17.50;;;4.47;;
48861;SDS011;34681;49.188;-0.374;2023-10-19T02:57:29;17.13;;;4.23;;
48861;SDS011;34681;49.188;-0.374;2023-10-19T02:59:56;14.93;;;4.17;;
48861;SDS011;34681;49.188;-0.374;2023-10-19T03:02:23;15.23;;;4.53;;
48861;SDS011;34681;49.188;-0.374;2023-10-19T03:04:51;9.77;;;3.77;;
48861;SDS011;34681;49.188;-0.374;2023-10-19T03:07:17;13.20;;;4.00;;
48861;SDS011;34681;49.188;-0.374;2023-10-19T03:09:43;14.10;;;4.30;;
48861;SDS011;34681;49.188;-0.374;2023-10-19T03:12:18;18.90;;;4.17;;
48861;SDS011;34681;49.188;-0.374;2023-10-19T03:14:44;12.27;;;4.50;;
48861;SDS011;34681;49.188;-0.374;2023-10-19T03:17:13;16.10;;;4.50;;
48861;SDS011;34681;49.188;-0.374;2023-10-19T03:19:40;14.30;;;4.03;;
48861;SDS011;34681;49.188;-0.374;2023-10-19T03:22:07;10.40;;;4.40;;
48861;SDS011;34681;49.188;-0.374;2023-10-19T03:24:33;14.00;;;4.80;;
48861;SDS011;34681;49.188;-0.374;2023-10-19T03:27:08;16.27;;;4.13;;
48861;SDS011;34681;49.188;-0.374;2023-10-19T03:29:38;9.03;;;3.67;;
48861;SDS011;34681;49.188;-0.374;2023-10-19T03:32:05;13.47;;;3.80;;
48861;SDS011;34681;49.188;-0.374;2023-10-19T03:34:31;8.40;;;2.83;;
48861;SDS011;34681;49.188;-0.374;2023-10-19T03:36:57;10.77;;;3.23;;
48861;SDS011;34681;49.188;-0.374;2023-10-19T03:39:29;6.17;;;2.77;;
48861;SDS011;34681;49.188;-0.374;2023-10-19T03:41:55;11.07;;;3.10;;
48861;SDS011;34681;49.188;-0.374;2023-10-19T03:44:20;17.10;;;5.57;;
48861;SDS011;34681;49.188;-0.374;2023-10-19T03:46:49;8.60;;;3.07;;
48861;SDS011;34681;49.188;-0.374;2023-10-19T03:49:19;17.07;;;4.63;;
48861;SDS011;34681;49.188;-0.374;2023-10-19T03:51:45;11.80;;;3.63;;
48861;SDS011;34681;49.188;-0.374;2023-10-19T03:54:26;7.93;;;3.00;;
48861;SDS011;34681;49.188;-0.374;2023-10-19T03:56:53;9.07;;;3.17;;
48861;SDS011;34681;49.188;-0.374;2023-10-19T03:59:26;13.10;;;4.27;;
48861;SDS011;34681;49.188;-0.374;2023-10-19T04:01:56;9.83;;;2.97;;
48861;SDS011;34681;49.188;-0.374;2023-10-19T04:04:24;9.23;;;3.87;;
48861;SDS011;34681;49.188;-0.374;2023-10-19T04:06:50;10.33;;;4.37;;
48861;SDS011;34681;49.188;-0.374;2023-10-19T04:09:22;6.83;;;2.93;;
48861;SDS011;34681;49.188;-0.374;2023-10-19T04:11:48;8.60;;;3.33;;
48861;SDS011;34681;49.188;-0.374;2023-10-19T04:14:15;8.53;;;3.57;;
48861;SDS011;34681;49.188;-0.374;2023-10-19T04:16:42;7.50;;;3.10;;
48861;SDS011;34681;49.188;-0.374;2023-10-19T04:19:13;8.17;;;3.37;;
48861;SDS011;34681;49.188;-0.374;2023-10-19T04:21:40;9.47;;;3.00;;
48861;SDS011;34681;49.188;-0.374;2023-10-19T04:24:09;6.43;;;2.60;;
48861;SDS011;34681;49.188;-0.374;2023-10-19T04:26:36;9.40;;;3.20;;
48861;SDS011;34681;49.188;-0.374;2023-10-19T04:29:04;5.40;;;2.90;;
48861;SDS011;34681;49.188;-0.374;2023-10-19T04:31:39;7.37;;;2.80;;
48861;SDS011;34681;49.188;-0.374;2023-10-19T04:34:20;7.30;;;2.60;;
48861;SDS011;34681;49.188;-0.374;2023-10-19T04:36:49;6.73;;;2.83;;
48861;SDS011;34681;49.188;-0.374;2023-10-19T04:39:14;7.23;;;2.57;;
48861;SDS011;34681;49.188;-0.374;2023-10-19T04:41:40;6.13;;;2.57;;
48861;SDS011;34681;49.188;-0.374;2023-10-19T04:44:06;6.70;;;2.90;;
48861;SDS011;34681;49.188;-0.374;2023-10-19T04:46:35;13.00;;;3.30;;
48861;SDS011;34681;49.188;-0.374;2023-10-19T04:49:01;7.43;;;3.27;;
48861;SDS011;34681;49.188;-0.374;2023-10-19T04:51:28;7.53;;;2.83;;
48861;SDS011;34681;49.188;-0.374;2023-10-19T04:53:54;4.90;;;2.40;;
48861;SDS011;34681;49.188;-0.374;2023-10-19T04:56:20;6.00;;;3.10;;
48861;SDS011;34681;49.188;-0.374;2023-10-19T04:58:45;3.80;;;2.73;;
48861;SDS011;34681;49.188;-0.374;2023-10-19T05:01:12;5.87;;;2.60;;
48861;SDS011;34681;49.188;-0.374;2023-10-19T05:03:37;7.90;;;2.57;;
48861;SDS011;34681;49.188;-0.374;2023-10-19T05:06:03;10.60;;;3.03;;
48861;SDS011;34681;49.188;-0.374;2023-10-19T05:08:29;8.43;;;2.97;;
48861;SDS011;34681;49.188;-0.374;2023-10-19T05:10:55;5.93;;;2.40;;
48861;SDS011;34681;49.188;-0.374;2023-10-19T05:13:22;9.13;;;4.20;;
48861;SDS011;34681;49.188;-0.374;2023-10-19T05:15:48;7.47;;;3.10;;
48861;SDS011;34681;49.188;-0.374;2023-10-19T05:18:14;5.77;;;3.77;;
48861;SDS011;34681;49.188;-0.374;2023-10-19T05:20:39;9.07;;;4.03;;
48861;SDS011;34681;49.188;-0.374;2023-10-19T05:23:07;7.47;;;2.97;;
48861;SDS011;34681;49.188;-0.374;2023-10-19T05:25:34;8.57;;;3.10;;
48861;SDS011;34681;49.188;-0.374;2023-10-19T05:28:02;10.13;;;3.70;;
48861;SDS011;34681;49.188;-0.374;2023-10-19T05:30:29;6.67;;;3.67;;
48861;SDS011;34681;49.188;-0.374;2023-10-19T05:32:55;9.20;;;3.20;;
48861;SDS011;34681;49.188;-0.374;2023-10-19T05:35:20;10.43;;;3.20;;
48861;SDS011;34681;49.188;-0.374;2023-10-19T05:37:51;9.13;;;2.87;;
48861;SDS011;34681;49.188;-0.374;2023-10-19T05:40:22;7.33;;;2.90;;
48861;SDS011;34681;49.188;-0.374;2023-10-19T05:42:48;6.50;;;2.53;;
48861;SDS011;34681;49.188;-0.374;2023-10-19T05:45:14;7.13;;;3.00;;
48861;SDS011;34681;49.188;-0.374;2023-10-19T05:47:41;5.57;;;2.90;;
48861;SDS011;34681;49.188;-0.374;2023-10-19T05:50:09;7.93;;;2.80;;
48861;SDS011;34681;49.188;-0.374;2023-10-19T05:52:39;6.03;;;3.37;;
48861;SDS011;34681;49.188;-0.374;2023-10-19T05:55:05;7.70;;;2.90;;
48861;SDS011;34681;49.188;-0.374;2023-10-19T05:57:31;10.37;;;2.70;;
48861;SDS011;34681;49.188;-0.374;2023-10-19T05:59:56;7.53;;;2.27;;
48861;SDS011;34681;49.188;-0.374;2023-10-19T06:02:21;2.50;;;2.30;;
48861;SDS011;34681;49.188;-0.374;2023-10-19T06:04:47;2.33;;;2.13;;
48861;SDS011;34681;49.188;-0.374;2023-10-19T06:07:12;2.43;;;1.90;;
48861;SDS011;34681;49.188;-0.374;2023-10-19T06:09:37;2.00;;;1.90;;
48861;SDS011;34681;49.188;-0.374;2023-10-19T06:12:04;3.60;;;2.03;;
48861;SDS011;34681;49.188;-0.374;2023-10-19T06:14:29;3.97;;;1.93;;
48861;SDS011;34681;49.188;-0.374;2023-10-19T06:16:55;3.63;;;2.00;;
48861;SDS011;34681;49.188;-0.374;2023-10-19T06:19:21;4.60;;;2.40;;
48861;SDS011;34681;49.188;-0.374;2023-10-19T06:21:47;4.63;;;2.00;;
48861;SDS011;34681;49.188;-0.374;2023-10-19T06:24:15;3.33;;;2.23;;
48861;SDS011;34681;49.188;-0.374;2023-10-19T06:26:41;2.90;;;1.70;;
48861;SDS011;34681;49.188;-0.374;2023-10-19T06:29:07;2.23;;;1.50;;
48861;SDS011;34681;49.188;-0.374;2023-10-19T06:31:33;3.30;;;1.47;;
48861;SDS011;34681;49.188;-0.374;2023-10-19T06:33:58;2.90;;;1.60;;
48861;SDS011;34681;49.188;-0.374;2023-10-19T06:36:25;3.53;;;1.93;;
48861;SDS011;34681;49.188;-0.374;2023-10-19T06:38:50;1.93;;;1.83;;
48861;SDS011;34681;49.188;-0.374;2023-10-19T06:41:16;2.00;;;1.77;;
48861;SDS011;34681;49.188;-0.374;2023-10-19T06:43:43;4.93;;;2.17;;
48861;SDS011;34681;49.188;-0.374;2023-10-19T06:46:09;1.43;;;1.33;;
48861;SDS011;34681;49.188;-0.374;2023-10-19T06:48:36;1.40;;;1.30;;
48861;SDS011;34681;49.188;-0.374;2023-10-19T06:51:02;1.87;;;1.70;;
48861;SDS011;34681;49.188;-0.374;2023-10-19T06:53:27;2.60;;;1.70;;
48861;SDS011;34681;49.188;-0.374;2023-10-19T06:55:53;4.53;;;1.57;;
48861;SDS011;34681;49.188;-0.374;2023-10-19T06:58:21;2.07;;;1.60;;
48861;SDS011;34681;49.188;-0.374;2023-10-19T07:00:49;1.97;;;1.40;;
48861;SDS011;34681;49.188;-0.374;2023-10-19T07:03:21;1.80;;;1.27;;
48861;SDS011;34681;49.188;-0.374;2023-10-19T07:05:47;2.37;;;1.30;;
48861;SDS011;34681;49.188;-0.374;2023-10-19T07:08:14;1.63;;;1.40;;
48861;SDS011;34681;49.188;-0.374;2023-10-19T07:11:05;3.47;;;1.50;;
48861;SDS011;34681;49.188;-0.374;2023-10-19T07:13:37;3.37;;;2.03;;
48861;SDS011;34681;49.188;-0.374;2023-10-19T07:16:22;2.83;;;1.70;;
48861;SDS011;34681;49.188;-0.374;2023-10-19T07:18:48;2.23;;;1.60;;
48861;SDS011;34681;49.188;-0.374;2023-10-19T07:21:15;2.47;;;1.47;;
48861;SDS011;34681;49.188;-0.374;2023-10-19T07:23:42;5.00;;;1.77;;
48861;SDS011;34681;49.188;-0.374;2023-10-19T07:26:09;2.87;;;1.90;;
48861;SDS011;34681;49.188;-0.374;2023-10-19T07:28:36;4.57;;;1.63;;
48861;SDS011;34681;49.188;-0.374;2023-10-19T07:31:07;1.30;;;1.20;;
48861;SDS011;34681;49.188;-0.374;2023-10-19T07:33:55;2.13;;;1.70;;
48861;SDS011;34681;49.188;-0.374;2023-10-19T07:36:23;2.83;;;1.50;;
48861;SDS011;34681;49.188;-0.374;2023-10-19T07:38:50;4.77;;;1.80;;
48861;SDS011;34681;49.188;-0.374;2023-10-19T07:41:16;3.33;;;1.60;;
48861;SDS011;34681;49.188;-0.374;2023-10-19T07:43:48;4.43;;;1.60;;
48861;SDS011;34681;49.188;-0.374;2023-10-19T07:46:13;5.37;;;2.00;;
48861;SDS011;34681;49.188;-0.374;2023-10-19T07:48:39;6.17;;;1.87;;
48861;SDS011;34681;49.188;-0.374;2023-10-19T07:51:04;1.77;;;1.53;;
48861;SDS011;34681;49.188;-0.374;2023-10-19T07:53:30;2.03;;;1.90;;
48861;SDS011;34681;49.188;-0.374;2023-10-19T07:55:55;3.77;;;1.97;;
48861;SDS011;34681;49.188;-0.374;2023-10-19T07:58:22;5.50;;;2.10;;
48861;SDS011;34681;49.188;-0.374;2023-10-19T08:00:47;6.00;;;2.07;;
48861;SDS011;34681;49.188;-0.374;2023-10-19T08:03:13;6.77;;;2.83;;
48861;SDS011;34681;49.188;-0.374;2023-10-19T08:05:41;8.47;;;1.83;;
48861;SDS011;34681;49.188;-0.374;2023-10-19T08:08:06;3.17;;;2.00;;
48861;SDS011;34681;49.188;-0.374;2023-10-19T08:10:32;3.17;;;2.40;;
48861;SDS011;34681;49.188;-0.374;2023-10-19T08:12:59;3.77;;;2.00;;
48861;SDS011;34681;49.188;-0.374;2023-10-19T08:15:26;14.43;;;2.90;;
48861;SDS011;34681;49.188;-0.374;2023-10-19T08:17:53;4.50;;;2.30;;
48861;SDS011;34681;49.188;-0.374;2023-10-19T08:20:20;6.57;;;2.20;;
48861;SDS011;34681;49.188;-0.374;2023-10-19T08:22:50;7.67;;;2.57;;
48861;SDS011;34681;49.188;-0.374;2023-10-19T08:25:16;5.03;;;2.83;;
48861;SDS011;34681;49.188;-0.374;2023-10-19T08:27:45;3.30;;;2.40;;
48861;SDS011;34681;49.188;-0.374;2023-10-19T08:30:13;4.47;;;2.43;;
48861;SDS011;34681;49.188;-0.374;2023-10-19T08:32:40;4.80;;;2.13;;
48861;SDS011;34681;49.188;-0.374;2023-10-19T08:35:07;2.10;;;1.80;;
48861;SDS011;34681;49.188;-0.374;2023-10-19T08:37:36;8.80;;;2.80;;
48861;SDS011;34681;49.188;-0.374;2023-10-19T08:40:02;4.23;;;2.23;;
48861;SDS011;34681;49.188;-0.374;2023-10-19T08:42:29;4.67;;;2.30;;
48861;SDS011;34681;49.188;-0.374;2023-10-19T08:44:55;8.67;;;2.43;;
48861;SDS011;34681;49.188;-0.374;2023-10-19T08:47:21;3.23;;;1.60;;
48861;SDS011;34681;49.188;-0.374;2023-10-19T08:49:50;3.53;;;2.70;;
48861;SDS011;34681;49.188;-0.374;2023-10-19T08:52:17;1.90;;;1.80;;
48861;SDS011;34681;49.188;-0.374;2023-10-19T08:54:47;7.40;;;2.10;;
48861;SDS011;34681;49.188;-0.374;2023-10-19T08:57:13;5.07;;;1.97;;
48861;SDS011;34681;49.188;-0.374;2023-10-19T08:59:40;3.20;;;2.10;;
48861;SDS011;34681;49.188;-0.374;2023-10-19T09:02:06;5.03;;;2.10;;
48861;SDS011;34681;49.188;-0.374;2023-10-19T09:04:32;5.77;;;2.50;;
48861;SDS011;34681;49.188;-0.374;2023-10-19T09:06:58;5.87;;;2.60;;
48861;SDS011;34681;49.188;-0.374;2023-10-19T09:09:26;7.33;;;2.30;;
48861;SDS011;34681;49.188;-0.374;2023-10-19T09:11:56;5.53;;;2.87;;
48861;SDS011;34681;49.188;-0.374;2023-10-19T09:14:32;4.47;;;2.20;;
48861;SDS011;34681;49.188;-0.374;2023-10-19T09:17:01;7.40;;;2.77;;
48861;SDS011;34681;49.188;-0.374;2023-10-19T09:19:35;9.20;;;3.10;;
48861;SDS011;34681;49.188;-0.374;2023-10-19T09:22:02;4.63;;;2.20;;
48861;SDS011;34681;49.188;-0.374;2023-10-19T09:24:35;10.90;;;3.40;;
48861;SDS011;34681;49.188;-0.374;2023-10-19T09:27:02;7.27;;;3.40;;
48861;SDS011;34681;49.188;-0.374;2023-10-19T09:29:30;4.80;;;2.30;;
48861;SDS011;34681;49.188;-0.374;2023-10-19T09:31:59;9.87;;;2.53;;
48861;SDS011;34681;49.188;-0.374;2023-10-19T09:34:29;10.90;;;4.17;;
48861;SDS011;34681;49.188;-0.374;2023-10-19T09:37:02;8.00;;;2.70;;
48861;SDS011;34681;49.188;-0.374;2023-10-19T09:39:32;8.13;;;4.23;;
48861;SDS011;34681;49.188;-0.374;2023-10-19T09:42:08;7.63;;;3.20;;
48861;SDS011;34681;49.188;-0.374;2023-10-19T09:44:41;8.33;;;4.27;;
48861;SDS011;34681;49.188;-0.374;2023-10-19T09:47:11;9.87;;;3.20;;
48861;SDS011;34681;49.188;-0.374;2023-10-19T09:49:41;10.37;;;3.60;;
48861;SDS011;34681;49.188;-0.374;2023-10-19T09:52:10;6.27;;;2.57;;
48861;SDS011;34681;49.188;-0.374;2023-10-19T09:54:48;9.50;;;3.80;;
48861;SDS011;34681;49.188;-0.374;2023-10-19T09:57:22;6.60;;;2.90;;
48861;SDS011;34681;49.188;-0.374;2023-10-19T10:00:18;9.20;;;3.63;;
48861;SDS011;34681;49.188;-0.374;2023-10-19T10:02:49;6.80;;;2.80;;
48861;SDS011;34681;49.188;-0.374;2023-10-19T10:10:46;7.87;;;3.57;;
48861;SDS011;34681;49.188;-0.374;2023-10-19T10:15:53;6.40;;;3.13;;
48861;SDS011;34681;49.188;-0.374;2023-10-19T10:18:19;9.57;;;3.50;;
48861;SDS011;34681;49.188;-0.374;2023-10-19T10:20:45;7.47;;;3.73;;
48861;SDS011;34681;49.188;-0.374;2023-10-19T10:23:23;7.90;;;3.40;;
48861;SDS011;34681;49.188;-0.374;2023-10-19T10:25:57;6.83;;;3.70;;
48861;SDS011;34681;49.188;-0.374;2023-10-19T10:28:23;9.23;;;3.80;;
48861;SDS011;34681;49.188;-0.374;2023-10-19T10:33:40;8.80;;;3.37;;
48861;SDS011;34681;49.188;-0.374;2023-10-19T10:36:07;8.10;;;4.30;;
48861;SDS011;34681;49.188;-0.374;2023-10-19T10:38:34;9.30;;;3.27;;
48861;SDS011;34681;49.188;-0.374;2023-10-19T10:41:02;9.77;;;3.53;;
48861;SDS011;34681;49.188;-0.374;2023-10-19T10:43:28;9.03;;;3.20;;
48861;SDS011;34681;49.188;-0.374;2023-10-19T10:46:07;9.33;;;3.47;;
48861;SDS011;34681;49.188;-0.374;2023-10-19T10:48:32;10.37;;;3.43;;
48861;SDS011;34681;49.188;-0.374;2023-10-19T10:50:58;8.07;;;3.00;;
48861;SDS011;34681;49.188;-0.374;2023-10-19T10:53:23;14.07;;;4.20;;
48861;SDS011;34681;49.188;-0.374;2023-10-19T10:55:55;8.60;;;3.87;;
48861;SDS011;34681;49.188;-0.374;2023-10-19T10:58:20;10.90;;;2.93;;
48861;SDS011;34681;49.188;-0.374;2023-10-19T11:00:46;11.50;;;3.50;;
48861;SDS011;34681;49.188;-0.374;2023-10-19T11:03:14;8.30;;;3.83;;
48861;SDS011;34681;49.188;-0.374;2023-10-19T11:05:40;5.53;;;3.23;;
48861;SDS011;34681;49.188;-0.374;2023-10-19T11:08:07;7.70;;;3.30;;
48861;SDS011;34681;49.188;-0.374;2023-10-19T11:10:32;8.83;;;3.30;;
48861;SDS011;34681;49.188;-0.374;2023-10-19T11:12:59;6.97;;;3.33;;
48861;SDS011;34681;49.188;-0.374;2023-10-19T11:15:26;5.90;;;2.87;;
48861;SDS011;34681;49.188;-0.374;2023-10-19T11:17:52;9.03;;;3.33;;
48861;SDS011;34681;49.188;-0.374;2023-10-19T11:20:20;9.63;;;2.80;;
48861;SDS011;34681;49.188;-0.374;2023-10-19T11:22:51;7.90;;;2.80;;
48861;SDS011;34681;49.188;-0.374;2023-10-19T11:25:21;14.93;;;4.03;;
48861;SDS011;34681;49.188;-0.374;2023-10-19T11:27:48;7.40;;;2.87;;
48861;SDS011;34681;49.188;-0.374;2023-10-19T11:30:14;9.97;;;3.40;;
48861;SDS011;34681;49.188;-0.374;2023-10-19T11:32:48;6.80;;;2.87;;
48861;SDS011;34681;49.188;-0.374;2023-10-19T11:35:17;10.17;;;3.30;;
48861;SDS011;34681;49.188;-0.374;2023-10-19T11:37:47;7.93;;;3.17;;
48861;SDS011;34681;49.188;-0.374;2023-10-19T11:40:13;9.47;;;3.33;;
48861;SDS011;34681;49.188;-0.374;2023-10-19T11:42:39;7.90;;;3.20;;
48861;SDS011;34681;49.188;-0.374;2023-10-19T11:45:05;4.80;;;2.40;;
48861;SDS011;34681;49.188;-0.374;2023-10-19T11:47:31;6.93;;;2.83;;
48861;SDS011;34681;49.188;-0.374;2023-10-19T11:49:56;6.47;;;2.57;;
48861;SDS011;34681;49.188;-0.374;2023-10-19T11:52:22;7.17;;;2.83;;
48861;SDS011;34681;49.188;-0.374;2023-10-19T11:54:48;8.10;;;2.83;;
48861;SDS011;34681;49.188;-0.374;2023-10-19T11:57:13;8.00;;;2.70;;
48861;SDS011;34681;49.188;-0.374;2023-10-19T11:59:39;9.00;;;2.90;;
48861;SDS011;34681;49.188;-0.374;2023-10-19T12:02:05;9.23;;;3.30;;
48861;SDS011;34681;49.188;-0.374;2023-10-19T12:04:31;5.33;;;2.27;;
48861;SDS011;34681;49.188;-0.374;2023-10-19T12:07:01;11.67;;;2.93;;
48861;SDS011;34681;49.188;-0.374;2023-10-19T12:09:26;9.10;;;2.77;;
48861;SDS011;34681;49.188;-0.374;2023-10-19T12:11:53;7.47;;;3.00;;
48861;SDS011;34681;49.188;-0.374;2023-10-19T12:14:19;6.73;;;3.47;;
48861;SDS011;34681;49.188;-0.374;2023-10-19T12:16:46;5.60;;;2.67;;
48861;SDS011;34681;49.188;-0.374;2023-10-19T12:19:12;7.47;;;2.57;;
48861;SDS011;34681;49.188;-0.374;2023-10-19T12:21:39;5.67;;;2.67;;
48861;SDS011;34681;49.188;-0.374;2023-10-19T12:24:06;6.53;;;2.63;;
48861;SDS011;34681;49.188;-0.374;2023-10-19T12:26:33;7.77;;;3.00;;
48861;SDS011;34681;49.188;-0.374;2023-10-19T12:28:58;6.70;;;2.60;;
48861;SDS011;34681;49.188;-0.374;2023-10-19T12:31:24;6.10;;;2.97;;
48861;SDS011;34681;49.188;-0.374;2023-10-19T12:33:50;5.93;;;2.60;;
48861;SDS011;34681;49.188;-0.374;2023-10-19T12:36:16;4.13;;;2.70;;
48861;SDS011;34681;49.188;-0.374;2023-10-19T12:39:07;10.97;;;3.77;;
48861;SDS011;34681;49.188;-0.374;2023-10-19T12:41:33;7.67;;;3.13;;
48861;SDS011;34681;49.188;-0.374;2023-10-19T12:43:59;14.10;;;3.30;;
48861;SDS011;34681;49.188;-0.374;2023-10-19T12:46:32;10.43;;;3.27;;
48861;SDS011;34681;49.188;-0.374;2023-10-19T12:49:01;9.40;;;2.67;;
48861;SDS011;34681;49.188;-0.374;2023-10-19T12:51:33;9.90;;;3.27;;
48861;SDS011;34681;49.188;-0.374;2023-10-19T12:53:59;8.73;;;3.10;;
48861;SDS011;34681;49.188;-0.374;2023-10-19T12:56:28;8.13;;;2.93;;
48861;SDS011;34681;49.188;-0.374;2023-10-19T12:58:54;9.60;;;4.07;;
48861;SDS011;34681;49.188;-0.374;2023-10-19T13:01:19;7.07;;;3.00;;
48861;SDS011;34681;49.188;-0.374;2023-10-19T13:03:46;8.80;;;3.10;;
48861;SDS011;34681;49.188;-0.374;2023-10-19T13:06:14;9.57;;;2.97;;
48861;SDS011;34681;49.188;-0.374;2023-10-19T13:08:40;10.40;;;3.07;;
48861;SDS011;34681;49.188;-0.374;2023-10-19T13:11:06;7.63;;;4.10;;
48861;SDS011;34681;49.188;-0.374;2023-10-19T13:13:32;6.77;;;3.37;;
48861;SDS011;34681;49.188;-0.374;2023-10-19T13:15:58;12.80;;;4.57;;
48861;SDS011;34681;49.188;-0.374;2023-10-19T13:18:24;9.43;;;3.50;;
48861;SDS011;34681;49.188;-0.374;2023-10-19T13:20:53;7.93;;;3.20;;
48861;SDS011;34681;49.188;-0.374;2023-10-19T13:23:19;9.90;;;3.50;;
48861;SDS011;34681;49.188;-0.374;2023-10-19T13:25:51;9.00;;;3.70;;
48861;SDS011;34681;49.188;-0.374;2023-10-19T13:28:22;6.03;;;2.90;;
48861;SDS011;34681;49.188;-0.374;2023-10-19T13:30:49;9.30;;;3.10;;
48861;SDS011;34681;49.188;-0.374;2023-10-19T13:33:16;10.50;;;3.43;;
48861;SDS011;34681;49.188;-0.374;2023-10-19T13:35:43;11.57;;;4.20;;
48861;SDS011;34681;49.188;-0.374;2023-10-19T13:38:10;10.33;;;3.37;;
48861;SDS011;34681;49.188;-0.374;2023-10-19T13:40:37;7.20;;;2.83;;
48861;SDS011;34681;49.188;-0.374;2023-10-19T13:43:04;9.33;;;3.53;;
48861;SDS011;34681;49.188;-0.374;2023-10-19T13:45:34;6.50;;;2.93;;
48861;SDS011;34681;49.188;-0.374;2023-10-19T13:48:01;8.53;;;3.23;;
48861;SDS011;34681;49.188;-0.374;2023-10-19T13:50:31;8.93;;;3.30;;
48861;SDS011;34681;49.188;-0.374;2023-10-19T13:52:58;10.20;;;3.40;;
48861;SDS011;34681;49.188;-0.374;2023-10-19T13:55:25;11.43;;;3.43;;
48861;SDS011;34681;49.188;-0.374;2023-10-19T13:57:51;11.67;;;3.67;;
48861;SDS011;34681;49.188;-0.374;2023-10-19T14:00:17;10.27;;;3.50;;
48861;SDS011;34681;49.188;-0.374;2023-10-19T14:03:05;9.70;;;4.00;;
48861;SDS011;34681;49.188;-0.374;2023-10-19T14:05:40;10.00;;;4.20;;
48861;SDS011;34681;49.188;-0.374;2023-10-19T14:08:13;9.90;;;3.97;;
48861;SDS011;34681;49.188;-0.374;2023-10-19T14:10:39;13.03;;;3.63;;
48861;SDS011;34681;49.188;-0.374;2023-10-19T14:13:08;5.63;;;2.53;;
48861;SDS011;34681;49.188;-0.374;2023-10-19T14:15:36;5.10;;;2.70;;
48861;SDS011;34681;49.188;-0.374;2023-10-19T14:18:02;5.60;;;2.73;;
48861;SDS011;34681;49.188;-0.374;2023-10-19T14:20:28;5.57;;;2.83;;
48861;SDS011;34681;49.188;-0.374;2023-10-19T14:22:59;5.60;;;2.43;;
48861;SDS011;34681;49.188;-0.374;2023-10-19T14:25:25;6.13;;;2.40;;
48861;SDS011;34681;49.188;-0.374;2023-10-19T14:27:52;9.53;;;3.23;;
48861;SDS011;34681;49.188;-0.374;2023-10-19T14:30:24;5.47;;;2.40;;
48861;SDS011;34681;49.188;-0.374;2023-10-19T14:32:51;3.10;;;2.17;;
48861;SDS011;34681;49.188;-0.374;2023-10-19T14:35:17;4.47;;;2.00;;
48861;SDS011;34681;49.188;-0.374;2023-10-19T14:37:44;4.50;;;2.13;;
48861;SDS011;34681;49.188;-0.374;2023-10-19T14:40:12;4.47;;;2.40;;
48861;SDS011;34681;49.188;-0.374;2023-10-19T14:42:40;2.97;;;1.87;;
48861;SDS011;34681;49.188;-0.374;2023-10-19T14:45:10;3.13;;;2.13;;
48861;SDS011;34681;49.188;-0.374;2023-10-19T14:47:38;5.00;;;1.93;;
48861;SDS011;34681;49.188;-0.374;2023-10-19T14:50:06;2.47;;;2.00;;
48861;SDS011;34681;49.188;-0.374;2023-10-19T14:52:37;3.90;;;2.10;;
48861;SDS011;34681;49.188;-0.374;2023-10-19T14:55:03;2.40;;;1.93;;
48861;SDS011;34681;49.188;-0.374;2023-10-19T14:57:31;4.40;;;2.20;;
48861;SDS011;34681;49.188;-0.374;2023-10-19T14:59:57;4.00;;;1.50;;